createdAt,value
2022-10-18T00:00:14.123Z,99947.72
2022-10-18T00:03:15.760Z,99930.41
2022-10-18T00:06:17.358Z,99938.28
2022-10-18T00:09:18.953Z,99940.84
2022-10-18T00:12:20.727Z,99929.16
2022-10-18T00:15:22.529Z,99936.47
2022-10-18T00:18:24.644Z,99936.50
2022-10-18T00:21:26.924Z,99946.84
2022-10-18T00:24:28.523Z,99936.25
2022-10-18T00:27:30.703Z,99951.81
2022-10-18T00:30:32.664Z,99945.47
2022-10-18T00:33:34.256Z,99953.75
2022-10-18T00:36:35.919Z,99947.84
2022-10-18T00:39:37.557Z,99933.25
2022-10-18T00:42:39.168Z,99940.22
2022-10-18T00:45:40.954Z,99943.56
2022-10-18T00:48:42.695Z,99952.38
2022-10-18T00:52:16.972Z,99944.28
2022-10-18T00:55:18.893Z,99953.13
2022-10-18T00:58:20.524Z,99933.72
2022-10-18T01:01:24.527Z,99943.75
2022-10-18T01:04:29.238Z,99952.78
2022-10-18T01:08:00.003Z,99953.13
2022-10-18T01:11:45.175Z,99946.63
2022-10-18T01:15:03.625Z,99952.09
2022-10-18T01:18:24.169Z,99958.28
2022-10-18T01:21:55.373Z,99956.63
2022-10-18T01:25:00.052Z,99951.78
2022-10-18T01:28:52.960Z,99947.00
2022-10-18T01:32:01.512Z,99942.59
2022-10-18T01:35:07.548Z,99948.34
2022-10-18T01:38:14.070Z,99935.59
2022-10-18T01:41:19.330Z,99933.63
2022-10-18T01:44:27.115Z,99943.94
2022-10-18T01:47:29.266Z,99937.66
2022-10-18T01:50:33.947Z,99924.56
2022-10-18T01:53:35.798Z,99929.16
2022-10-18T01:56:46.914Z,99937.91
2022-10-18T02:00:03.944Z,99934.38
2022-10-18T02:03:28.931Z,99931.78
2022-10-18T02:06:38.496Z,99924.59
2022-10-18T02:09:50.619Z,99925.66
2022-10-18T02:12:54.771Z,99923.88
2022-10-18T02:16:01.637Z,99928.31
2022-10-18T02:19:14.485Z,99920.88
2022-10-18T02:22:17.495Z,99918.88
2022-10-18T02:25:23.885Z,99921.50
2022-10-18T02:28:29.306Z,99926.16
2022-10-18T02:31:46.459Z,99923.88
2022-10-18T02:35:13.127Z,99931.00
2022-10-18T02:38:17.839Z,99928.38
2022-10-18T02:41:25.023Z,99923.53
2022-10-18T02:44:26.808Z,99920.03
2022-10-18T02:47:28.594Z,99924.03
2022-10-18T02:50:30.346Z,99915.03
2022-10-18T02:53:32.029Z,99925.44
2022-10-18T02:56:33.760Z,99925.88
2022-10-18T02:59:35.471Z,99931.38
2022-10-18T03:02:37.090Z,99926.91
2022-10-18T03:05:38.648Z,99926.78
2022-10-18T03:08:40.381Z,99923.66
2022-10-18T03:11:42.036Z,99934.75
2022-10-18T03:14:43.728Z,99937.84
2022-10-18T03:17:45.344Z,99935.44
2022-10-18T03:20:47.081Z,99922.47
2022-10-18T03:23:48.715Z,99947.13
2022-10-18T03:26:50.391Z,99944.88
2022-10-18T03:29:52.002Z,99945.31
2022-10-18T03:32:54.341Z,99942.34
2022-10-18T03:35:56.022Z,99947.47
2022-10-18T03:38:57.645Z,99953.97
2022-10-18T03:41:59.238Z,99957.94
2022-10-18T03:45:00.837Z,99936.31
2022-10-18T03:48:02.529Z,99928.41
2022-10-18T03:51:04.210Z,99944.88
2022-10-18T03:54:05.899Z,99947.06
2022-10-18T03:57:07.539Z,99964.88
2022-10-18T04:00:09.769Z,99962.72
2022-10-18T04:03:14.198Z,99965.09
2022-10-18T04:06:15.837Z,99964.22
2022-10-18T04:09:17.886Z,99972.28
2022-10-18T04:12:19.502Z,99963.56
2022-10-18T04:15:21.331Z,99965.88
2022-10-18T04:18:22.946Z,99955.34
2022-10-18T04:21:24.592Z,99944.28
2022-10-18T04:24:26.249Z,99955.75
2022-10-18T04:27:27.848Z,99952.22
2022-10-18T04:30:29.558Z,99953.13
2022-10-18T04:33:31.192Z,99952.69
2022-10-18T04:36:32.891Z,99961.59
2022-10-18T04:39:34.490Z,99960.91
2022-10-18T04:42:36.186Z,99963.16
2022-10-18T04:45:37.871Z,99970.06
2022-10-18T04:48:39.600Z,99958.34
2022-10-18T04:51:41.289Z,99960.47
2022-10-18T04:54:42.974Z,99962.50
2022-10-18T04:57:44.583Z,99973.81
2022-10-18T05:00:47.833Z,99983.19
2022-10-18T05:03:54.147Z,99983.44
2022-10-18T05:06:55.755Z,99979.69
2022-10-18T05:09:57.411Z,99985.91
2022-10-18T05:12:59.049Z,99966.75
2022-10-18T05:16:00.911Z,99983.09
2022-10-18T05:19:04.689Z,99977.38
2022-10-18T05:22:06.613Z,99991.09
2022-10-18T05:25:08.872Z,99991.59
2022-10-18T05:28:21.113Z,99983.66
2022-10-18T05:31:32.600Z,99987.13
2022-10-18T05:34:34.326Z,99978.84
2022-10-18T05:37:35.906Z,99966.59
2022-10-18T05:40:40.594Z,99964.13
2022-10-18T05:43:42.266Z,99968.97
2022-10-18T05:46:43.975Z,99964.72
2022-10-18T05:49:45.634Z,99969.50
2022-10-18T05:52:47.191Z,99959.59
2022-10-18T05:55:48.792Z,99961.69
2022-10-18T05:58:51.717Z,99965.31
2022-10-18T06:01:53.325Z,99960.56
2022-10-18T06:04:54.923Z,99957.69
2022-10-18T06:07:57.174Z,99966.53
2022-10-18T06:10:59.163Z,99972.22
2022-10-18T06:14:01.936Z,99964.78
2022-10-18T06:17:04.197Z,99967.47
2022-10-18T06:20:07.423Z,99980.50
2022-10-18T06:23:09.032Z,99989.75
2022-10-18T06:26:11.879Z,99982.66
2022-10-18T06:29:14.032Z,99984.63
2022-10-18T06:32:15.993Z,99993.41
2022-10-18T06:35:17.572Z,99992.47
2022-10-18T06:38:19.172Z,99988.22
2022-10-18T06:41:22.353Z,99989.38
2022-10-18T06:44:26.618Z,100008.69
2022-10-18T06:47:28.246Z,100005.53
2022-10-18T06:50:29.857Z,100021.97
2022-10-18T06:53:40.754Z,100016.47
2022-10-18T06:56:46.084Z,100019.56
2022-10-18T06:59:47.753Z,100017.50
2022-10-18T07:02:49.392Z,100023.75
2022-10-18T07:05:51.161Z,100033.28
2022-10-18T07:08:54.223Z,100040.28
2022-10-18T07:11:56.042Z,100040.91
2022-10-18T07:14:57.717Z,100045.25
2022-10-18T07:17:59.349Z,100051.88
2022-10-18T07:21:12.763Z,100048.50
2022-10-18T07:24:14.474Z,100055.28
2022-10-18T07:27:16.113Z,100058.81
2022-10-18T07:30:17.839Z,100064.81
2022-10-18T07:33:20.742Z,100074.88
2022-10-18T07:36:22.472Z,100072.66
2022-10-18T07:39:24.110Z,100081.25
2022-10-18T07:42:26.064Z,100080.81
2022-10-18T07:45:27.714Z,100077.28
2022-10-18T07:48:29.620Z,100085.06
2022-10-18T07:51:32.784Z,100083.31
2022-10-18T07:54:34.387Z,100094.31
2022-10-18T07:57:35.942Z,100089.84
2022-10-18T08:00:37.875Z,100084.34
2022-10-18T08:03:40.506Z,100093.09
2022-10-18T08:06:42.215Z,100079.88
2022-10-18T08:09:43.953Z,100083.19
2022-10-18T08:12:45.544Z,100085.50
2022-10-18T08:15:47.280Z,100098.50
2022-10-18T08:18:48.980Z,100103.25
2022-10-18T08:21:50.615Z,100102.97
2022-10-18T08:24:52.191Z,100119.22
2022-10-18T08:27:53.764Z,100115.41
2022-10-18T08:33:57.554Z,100110.84
2022-10-18T08:36:59.213Z,100122.25
2022-10-18T08:40:01.396Z,100118.56
2022-10-18T08:43:25.461Z,100120.63
2022-10-18T08:46:28.382Z,100113.66
2022-10-18T08:49:38.195Z,100115.88
2022-10-18T08:53:20.456Z,100115.47
2022-10-18T08:56:24.384Z,100116.19
2022-10-18T08:59:29.113Z,100110.25
2022-10-18T09:02:41.851Z,100118.59
2022-10-18T09:05:49.542Z,100126.47
2022-10-18T09:09:23.465Z,100126.53
2022-10-18T09:13:16.199Z,100134.88
2022-10-18T09:16:26.875Z,100124.72
2022-10-18T09:19:55.003Z,100129.47
2022-10-18T09:23:12.628Z,100132.75
2022-10-18T09:26:24.827Z,100142.00
2022-10-18T09:29:29.440Z,100137.63
2022-10-18T09:32:49.533Z,100138.53
2022-10-18T09:35:54.540Z,100137.22
2022-10-18T09:39:02.155Z,100137.69
2022-10-18T09:42:30.235Z,100136.63
2022-10-18T09:45:39.096Z,100129.88
2022-10-18T09:48:44.942Z,100130.84
2022-10-18T09:51:49.255Z,100131.16
2022-10-18T09:55:01.220Z,100139.63
2022-10-18T09:58:06.067Z,100133.78
2022-10-18T10:01:09.557Z,100137.16
2022-10-18T10:04:11.154Z,100130.75
2022-10-18T10:07:17.031Z,100134.34
2022-10-18T10:10:25.548Z,100135.81
2022-10-18T10:13:27.991Z,100132.88
2022-10-18T10:16:29.933Z,100127.63
2022-10-18T10:19:34.748Z,100123.81
2022-10-18T10:22:40.315Z,100119.88
2022-10-18T10:25:43.337Z,100118.84
2022-10-18T10:28:48.674Z,100120.94
2022-10-18T10:32:04.017Z,100115.72
2022-10-18T10:35:33.837Z,100111.81
2022-10-18T10:38:37.043Z,100106.22
2022-10-18T10:41:40.755Z,100112.09
2022-10-18T10:44:55.118Z,100107.97
2022-10-18T10:48:04.939Z,100121.44
2022-10-18T10:51:09.745Z,100119.16
2022-10-18T10:54:21.907Z,100120.66
2022-10-18T10:57:28.025Z,100119.97
2022-10-18T11:00:44.755Z,100115.16
2022-10-18T11:03:48.524Z,100113.94
2022-10-18T11:07:09.036Z,100117.41
2022-10-18T11:10:10.599Z,100119.91
2022-10-18T11:13:31.936Z,100116.56
2022-10-18T11:16:39.234Z,100115.75
2022-10-18T11:19:59.303Z,100113.47
2022-10-18T11:23:02.661Z,100112.72
2022-10-18T11:26:13.487Z,100117.28
2022-10-18T11:29:45.351Z,100116.44
2022-10-18T11:33:50.104Z,100113.31
2022-10-18T11:37:25.926Z,100109.25
2022-10-18T11:40:43.616Z,100102.34
2022-10-18T11:44:18.942Z,100098.53
2022-10-18T11:47:37.002Z,100103.97
2022-10-18T11:50:41.451Z,100094.59
2022-10-18T11:54:11.014Z,100086.31
2022-10-18T11:57:50.551Z,100087.78
2022-10-18T12:01:30.204Z,100085.59
2022-10-18T12:04:53.198Z,100078.25
2022-10-18T12:08:20.898Z,100080.72
2022-10-18T12:11:28.109Z,100068.88
2022-10-18T12:14:40.843Z,100068.75
2022-10-18T12:17:50.395Z,100070.53
2022-10-18T12:20:55.445Z,100057.09
2022-10-18T12:24:06.130Z,100058.63
2022-10-18T12:27:13.538Z,100059.09
2022-10-18T12:30:25.137Z,100066.78
2022-10-18T12:33:34.337Z,100062.44
2022-10-18T12:37:08.796Z,100066.66
2022-10-18T12:40:23.531Z,100061.13
2022-10-18T12:43:27.714Z,100064.66
2022-10-18T12:46:56.133Z,100054.72
2022-10-18T12:50:04.386Z,100047.72
2022-10-18T12:53:27.689Z,100045.53
2022-10-18T12:56:29.247Z,100044.78
2022-10-18T12:59:30.774Z,100047.75
2022-10-18T13:02:33.498Z,100044.78
2022-10-18T13:05:56.080Z,100048.47
2022-10-18T13:09:18.429Z,100037.81
2022-10-18T13:12:19.941Z,100032.66
2022-10-18T13:15:49.954Z,100034.66
2022-10-18T13:19:09.064Z,100031.88
2022-10-18T13:22:32.206Z,100033.47
2022-10-18T13:25:54.992Z,100036.63
2022-10-18T13:29:28.386Z,100033.06
2022-10-18T13:32:44.577Z,100029.88
2022-10-18T13:36:04.008Z,100040.19
2022-10-18T13:39:06.170Z,100031.47
2022-10-18T13:42:31.576Z,100035.81
2022-10-18T13:45:33.379Z,100037.00
2022-10-18T13:48:35.035Z,100031.91
2022-10-18T13:51:39.254Z,100029.78
2022-10-18T13:54:50.925Z,100025.63
2022-10-18T13:57:52.466Z,100025.47
2022-10-18T14:01:21.971Z,100019.94
2022-10-18T14:04:32.434Z,100025.75
2022-10-18T14:07:35.437Z,100028.13
2022-10-18T14:11:02.044Z,100017.81
2022-10-18T14:14:11.631Z,100033.00
2022-10-18T14:17:17.788Z,100035.00
2022-10-18T14:20:29.885Z,100036.22
2022-10-18T14:23:40.081Z,100039.31
2022-10-18T14:26:41.684Z,100035.00
2022-10-18T14:29:43.616Z,100038.47
2022-10-18T14:32:51.570Z,100032.41
2022-10-18T14:36:15.391Z,100043.22
2022-10-18T14:39:24.059Z,100041.34
2022-10-18T14:42:27.325Z,100032.69
2022-10-18T14:45:28.984Z,100033.84
2022-10-18T14:48:30.598Z,100032.66
2022-10-18T14:51:36.676Z,100033.03
2022-10-18T14:54:38.769Z,100026.75
2022-10-18T14:57:40.508Z,100028.34
2022-10-18T15:00:45.075Z,100022.81
2022-10-18T15:03:50.187Z,100020.00
2022-10-18T15:06:51.806Z,100022.25
2022-10-18T15:09:55.056Z,100025.09
2022-10-18T15:13:11.384Z,100016.06
2022-10-18T15:16:20.597Z,100016.09
2022-10-18T15:19:22.145Z,100011.34
2022-10-18T15:22:31.697Z,100008.16
2022-10-18T15:25:35.909Z,99992.00
2022-10-18T15:28:50.106Z,99997.56
2022-10-18T15:31:52.541Z,100001.50
2022-10-18T15:34:54.782Z,99982.09
2022-10-18T15:38:03.564Z,99995.34
2022-10-18T15:41:36.896Z,99992.66
2022-10-18T15:44:50.941Z,99996.97
2022-10-18T15:48:14.014Z,99999.25
2022-10-18T15:51:47.928Z,100008.56
2022-10-18T15:54:49.551Z,100001.41
2022-10-18T15:57:51.220Z,99999.47
2022-10-18T16:00:59.098Z,99996.84
2022-10-18T16:04:05.382Z,100007.75
2022-10-18T16:07:07.111Z,99998.38
2022-10-18T16:10:15.038Z,100010.63
2022-10-18T16:13:17.880Z,100004.59
2022-10-18T16:16:25.640Z,100006.81
2022-10-18T16:19:27.266Z,100014.03
2022-10-18T16:22:31.117Z,100019.22
2022-10-18T16:25:35.105Z,100013.75
2022-10-18T16:28:36.869Z,100017.38
2022-10-18T16:31:38.465Z,100020.38
2022-10-18T16:34:40.105Z,100020.69
2022-10-18T16:37:42.270Z,100019.97
2022-10-18T16:40:45.226Z,100021.06
2022-10-18T16:43:49.526Z,100009.28
2022-10-18T16:46:53.976Z,100006.84
2022-10-18T16:50:01.518Z,100027.78
2022-10-18T16:53:06.608Z,100026.63
2022-10-18T16:56:18.100Z,100032.47
2022-10-18T16:59:31.703Z,100041.41
2022-10-18T17:02:33.484Z,100043.59
2022-10-18T17:05:35.509Z,100047.28
2022-10-18T17:08:37.186Z,100044.38
2022-10-18T17:11:38.969Z,100048.22
2022-10-18T17:14:40.664Z,100043.66
2022-10-18T17:17:42.375Z,100058.22
2022-10-18T17:20:45.049Z,100056.81
2022-10-18T17:23:46.780Z,100057.38
2022-10-18T17:26:48.460Z,100066.41
2022-10-18T17:29:50.105Z,100061.91
2022-10-18T17:32:51.742Z,100056.28
2022-10-18T17:35:53.587Z,100062.47
2022-10-18T17:38:55.849Z,100071.13
2022-10-18T17:41:57.690Z,100067.06
2022-10-18T17:44:59.420Z,100066.53
2022-10-18T17:48:01.037Z,100070.25
2022-10-18T17:51:10.068Z,100066.38
2022-10-18T17:54:12.657Z,100066.97
2022-10-18T17:57:14.289Z,100074.31
2022-10-18T18:00:16.239Z,100061.88
2022-10-18T18:03:17.871Z,100077.94
2022-10-18T18:06:21.179Z,100087.53
2022-10-18T18:09:23.407Z,100077.47
2022-10-18T18:12:25.373Z,100078.50
2022-10-18T18:15:27.200Z,100082.09
2022-10-18T18:18:28.813Z,100081.19
2022-10-18T18:21:30.720Z,100073.94
2022-10-18T18:24:32.550Z,100080.66
2022-10-18T18:27:34.187Z,100077.00
2022-10-18T18:30:39.901Z,100074.72
2022-10-18T18:33:42.250Z,100071.69
2022-10-18T18:36:44.832Z,100072.41
2022-10-18T18:39:46.478Z,100072.75
2022-10-18T18:43:01.808Z,100080.06
2022-10-18T18:46:10.872Z,100074.50
2022-10-18T18:49:13.450Z,100069.19
2022-10-18T18:52:15.182Z,100054.75
2022-10-18T18:55:17.072Z,100063.41
2022-10-18T18:58:18.949Z,100061.25
2022-10-18T19:01:22.127Z,100065.03
2022-10-18T19:04:23.802Z,100052.09
2022-10-18T19:07:25.442Z,100036.88
2022-10-18T19:10:27.659Z,100061.88
2022-10-18T19:13:29.291Z,100046.78
2022-10-18T19:16:38.728Z,100058.59
2022-10-18T19:19:40.997Z,100054.97
2022-10-18T19:22:42.680Z,100058.72
2022-10-18T19:25:44.723Z,100053.38
2022-10-18T19:28:46.550Z,100065.44
2022-10-18T19:31:49.321Z,100067.97
2022-10-18T19:34:52.237Z,100067.50
2022-10-18T19:37:54.038Z,100058.41
2022-10-18T19:40:55.978Z,100063.28
2022-10-18T19:43:57.633Z,100047.59
2022-10-18T19:46:59.883Z,100040.88
2022-10-18T19:50:01.684Z,100050.09
2022-10-18T19:53:03.801Z,100053.63
2022-10-18T19:56:08.513Z,100059.53
2022-10-18T19:59:11.981Z,100063.63
2022-10-18T20:02:15.177Z,100066.22
2022-10-18T20:05:17.149Z,100053.50
2022-10-18T20:08:18.831Z,100040.34
2022-10-18T20:11:24.490Z,100055.97
2022-10-18T20:14:26.322Z,100046.06
2022-10-18T20:17:28.321Z,100061.53
2022-10-18T20:20:29.994Z,100063.50
2022-10-18T20:23:32.628Z,100064.06
2022-10-18T20:26:35.898Z,100060.28
2022-10-18T20:29:37.741Z,100054.75
2022-10-18T20:32:39.869Z,100067.78
2022-10-18T20:35:41.970Z,100068.00
2022-10-18T20:38:45.840Z,100057.66
2022-10-18T20:41:49.513Z,100059.06
2022-10-18T20:44:51.170Z,100062.56
2022-10-18T20:47:52.899Z,100063.03
2022-10-18T20:50:54.773Z,100068.22
2022-10-18T20:53:56.791Z,100063.22
2022-10-18T20:56:58.530Z,100053.56
2022-10-18T21:00:00.221Z,100071.22
2022-10-18T21:03:02.381Z,100063.38
2022-10-18T21:06:18.568Z,100073.69
2022-10-18T21:09:20.426Z,100062.66
2022-10-18T21:12:22.271Z,100064.81
2022-10-18T21:15:24.075Z,100058.56
2022-10-18T21:18:26.739Z,100057.78
2022-10-18T21:21:28.349Z,100049.22
2022-10-18T21:24:30.613Z,100056.72
2022-10-18T21:27:32.400Z,100053.19
2022-10-18T21:30:34.120Z,100046.69
2022-10-18T21:33:35.865Z,100050.78
2022-10-18T21:36:37.687Z,100050.28
2022-10-18T21:39:39.253Z,100032.78
2022-10-18T21:42:40.887Z,100049.72
2022-10-18T21:45:42.467Z,100030.72
2022-10-18T21:48:46.420Z,100037.28
2022-10-18T21:51:48.138Z,100029.00
2022-10-18T21:54:49.787Z,100015.00
2022-10-18T21:57:51.513Z,100028.88
2022-10-18T22:00:53.160Z,100023.75
2022-10-18T22:03:56.781Z,100026.81
2022-10-18T22:06:59.522Z,100025.78
2022-10-18T22:10:01.109Z,100026.53
2022-10-18T22:13:02.783Z,100018.28
2022-10-18T22:16:06.799Z,100020.66
2022-10-18T22:19:08.641Z,100026.44
2022-10-18T22:22:10.435Z,100019.44
2022-10-18T22:25:12.044Z,100031.25
2022-10-18T22:28:13.702Z,100026.28
2022-10-18T22:31:23.348Z,100026.63
2022-10-18T22:34:28.982Z,100014.56
2022-10-18T22:37:30.744Z,100012.00
2022-10-18T22:40:32.638Z,100014.06
2022-10-18T22:43:35.210Z,100020.91
2022-10-18T22:46:36.816Z,100021.44
2022-10-18T22:49:39.201Z,100026.53
2022-10-18T22:52:40.938Z,100022.72
2022-10-18T22:55:42.533Z,100018.38
2022-10-18T22:58:44.240Z,100028.47
2022-10-18T23:01:45.901Z,100013.47
2022-10-18T23:04:47.537Z,100024.22
2022-10-18T23:07:49.505Z,100023.94
2022-10-18T23:10:55.470Z,100020.25
2022-10-18T23:13:57.176Z,100018.34
2022-10-18T23:16:58.790Z,100019.78
2022-10-18T23:20:00.359Z,100015.88
2022-10-18T23:23:01.955Z,100007.38
2022-10-18T23:26:06.262Z,100008.84
2022-10-18T23:29:09.040Z,99999.97
2022-10-18T23:32:10.741Z,99997.38
2022-10-18T23:35:12.292Z,99989.88
2022-10-18T23:38:13.924Z,99973.47
2022-10-18T23:41:16.553Z,99971.56
2022-10-18T23:44:18.132Z,99979.66
2022-10-18T23:47:19.807Z,99982.91
2022-10-18T23:50:21.402Z,99972.59
2022-10-18T23:53:23.090Z,99978.66
2022-10-18T23:56:24.705Z,99958.06
2022-10-18T23:59:26.518Z,99968.91
